East Flat Rock, North Carolina
Current Conditions -  °F | °C
As of 10:54 PM on Saturday 25 Oct 2014 (Local Time) from KAVL Reporting Station
Clear Clear  
Wind Chill: 53°   Ceiling: Unl
Heat Index: 53°   Visibility: 10mi
Dew Point: 45°   Wind: 6mph
Humidity: 74%   Direction: 350°N
Pressure: 30.04"   Gusts: NA
Location:  35.28°N, 82.42°W
Report Text: KAVL 260254Z AUTO 35005KT 10SM CLR 12/07 A3004 RMK AO2 SLP162 T01170072 50001
Loading
Personal Weather Stations






























Interactive Weather Map
Tropical Storm Tracking
New forecast layout! Learn more

10-Day Weather Forecast

Advertisements
Track Severe Weather on mobile